sensor_id;sensor_type;location;lat;lon;timestamp;temperature;humidity
20208;DHT22;10263;48.716;8.760;2022-12-18T00:02:07;-9.10;99.90
20208;DHT22;10263;48.716;8.760;2022-12-18T00:07:04;-9.10;99.90
20208;DHT22;10263;48.716;8.760;2022-12-18T00:14:27;-9.20;99.90
20208;DHT22;10263;48.716;8.760;2022-12-18T00:19:23;-9.20;99.90
20208;DHT22;10263;48.716;8.760;2022-12-18T00:29:13;-9.30;99.90
20208;DHT22;10263;48.716;8.760;2022-12-18T00:31:42;-9.20;99.90
20208;DHT22;10263;48.716;8.760;2022-12-18T00:34:10;-9.30;99.90
20208;DHT22;10263;48.716;8.760;2022-12-18T00:36:40;-10.70;99.90
20208;DHT22;10263;48.716;8.760;2022-12-18T00:39:07;-8.80;99.90
20208;DHT22;10263;48.716;8.760;2022-12-18T00:46:48;-9.40;99.90
20208;DHT22;10263;48.716;8.760;2022-12-18T00:49:19;-9.10;99.90
20208;DHT22;10263;48.716;8.760;2022-12-18T01:04:06;-9.40;99.90
20208;DHT22;10263;48.716;8.760;2022-12-18T01:18:52;-9.50;99.90
20208;DHT22;10263;48.716;8.760;2022-12-18T01:21:22;-9.50;99.90
20208;DHT22;10263;48.716;8.760;2022-12-18T01:23:51;-9.60;99.90
20208;DHT22;10263;48.716;8.760;2022-12-18T01:31:16;-9.60;99.90
20208;DHT22;10263;48.716;8.760;2022-12-18T01:36:16;-9.50;99.90
20208;DHT22;10263;48.716;8.760;2022-12-18T01:38:45;-8.50;99.90
20208;DHT22;10263;48.716;8.760;2022-12-18T01:41:13;-9.70;99.90
20208;DHT22;10263;48.716;8.760;2022-12-18T01:43:46;-9.60;99.90
20208;DHT22;10263;48.716;8.760;2022-12-18T01:46:13;-9.50;99.90
20208;DHT22;10263;48.716;8.760;2022-12-18T01:48:41;-9.50;99.90
20208;DHT22;10263;48.716;8.760;2022-12-18T01:51:09;-9.50;99.90
20208;DHT22;10263;48.716;8.760;2022-12-18T01:53:37;-9.40;99.90
20208;DHT22;10263;48.716;8.760;2022-12-18T01:56:07;-9.50;99.90
20208;DHT22;10263;48.716;8.760;2022-12-18T01:58:41;-9.40;99.90
20208;DHT22;10263;48.716;8.760;2022-12-18T02:03:41;-9.30;99.90
20208;DHT22;10263;48.716;8.760;2022-12-18T02:06:13;-9.30;99.90
20208;DHT22;10263;48.716;8.760;2022-12-18T02:08:50;-9.30;99.90
20208;DHT22;10263;48.716;8.760;2022-12-18T02:11:30;-9.30;99.90
20208;DHT22;10263;48.716;8.760;2022-12-18T02:14:04;-9.30;99.90
20208;DHT22;10263;48.716;8.760;2022-12-18T02:16:39;-9.30;99.90
20208;DHT22;10263;48.716;8.760;2022-12-18T02:19:19;-9.10;99.90
20208;DHT22;10263;48.716;8.760;2022-12-18T02:21:54;-9.30;99.90
20208;DHT22;10263;48.716;8.760;2022-12-18T02:24:31;-9.30;99.90
20208;DHT22;10263;48.716;8.760;2022-12-18T02:27:04;-9.30;99.90
20208;DHT22;10263;48.716;8.760;2022-12-18T02:29:35;-9.40;99.90
20208;DHT22;10263;48.716;8.760;2022-12-18T02:32:06;-9.50;99.90
20208;DHT22;10263;48.716;8.760;2022-12-18T02:34:37;-9.50;99.90
20208;DHT22;10263;48.716;8.760;2022-12-18T02:37:08;-9.50;99.90
20208;DHT22;10263;48.716;8.760;2022-12-18T02:39:38;-9.50;99.90
20208;DHT22;10263;48.716;8.760;2022-12-18T02:42:12;-9.50;99.90
20208;DHT22;10263;48.716;8.760;2022-12-18T02:44:43;-9.50;99.90
20208;DHT22;10263;48.716;8.760;2022-12-18T02:47:12;-9.50;99.90
20208;DHT22;10263;48.716;8.760;2022-12-18T02:49:48;-9.60;99.90
20208;DHT22;10263;48.716;8.760;2022-12-18T02:52:27;-9.50;99.90
20208;DHT22;10263;48.716;8.760;2022-12-18T02:55:08;-9.50;99.90
20208;DHT22;10263;48.716;8.760;2022-12-18T02:57:44;-9.50;99.90
20208;DHT22;10263;48.716;8.760;2022-12-18T03:00:16;-9.50;99.90
20208;DHT22;10263;48.716;8.760;2022-12-18T03:02:48;-9.70;99.90
20208;DHT22;10263;48.716;8.760;2022-12-18T03:05:20;-9.50;99.90
20208;DHT22;10263;48.716;8.760;2022-12-18T03:07:53;-9.10;99.90
20208;DHT22;10263;48.716;8.760;2022-12-18T03:10:26;-9.60;99.90
20208;DHT22;10263;48.716;8.760;2022-12-18T03:13:00;-9.50;99.90
20208;DHT22;10263;48.716;8.760;2022-12-18T03:15:30;-9.40;99.90
20208;DHT22;10263;48.716;8.760;2022-12-18T03:18:10;-9.40;99.90
20208;DHT22;10263;48.716;8.760;2022-12-18T03:20:43;-9.50;99.90
20208;DHT22;10263;48.716;8.760;2022-12-18T03:23:15;-9.50;99.90
20208;DHT22;10263;48.716;8.760;2022-12-18T03:25:47;-9.50;99.90
20208;DHT22;10263;48.716;8.760;2022-12-18T03:28:20;-9.50;99.90
20208;DHT22;10263;48.716;8.760;2022-12-18T03:30:55;-9.40;99.90
20208;DHT22;10263;48.716;8.760;2022-12-18T03:33:25;-9.50;99.90
20208;DHT22;10263;48.716;8.760;2022-12-18T03:35:55;-9.50;99.90
20208;DHT22;10263;48.716;8.760;2022-12-18T03:40:59;-9.60;99.90
20208;DHT22;10263;48.716;8.760;2022-12-18T03:43:42;-9.60;99.90
20208;DHT22;10263;48.716;8.760;2022-12-18T03:46:30;-9.50;99.90
20208;DHT22;10263;48.716;8.760;2022-12-18T03:49:04;-9.60;99.90
20208;DHT22;10263;48.716;8.760;2022-12-18T03:51:39;-9.50;99.90
20208;DHT22;10263;48.716;8.760;2022-12-18T03:54:09;-9.80;99.90
20208;DHT22;10263;48.716;8.760;2022-12-18T03:56:44;-9.60;99.90
20208;DHT22;10263;48.716;8.760;2022-12-18T03:59:15;-9.60;99.90
20208;DHT22;10263;48.716;8.760;2022-12-18T04:01:46;-9.60;99.90
20208;DHT22;10263;48.716;8.760;2022-12-18T04:04:16;-9.70;99.90
20208;DHT22;10263;48.716;8.760;2022-12-18T04:06:45;-9.70;99.90
20208;DHT22;10263;48.716;8.760;2022-12-18T04:09:13;-9.70;99.90
20208;DHT22;10263;48.716;8.760;2022-12-18T04:11:46;-9.80;99.90
20208;DHT22;10263;48.716;8.760;2022-12-18T04:14:16;-9.70;99.90
20208;DHT22;10263;48.716;8.760;2022-12-18T04:16:42;-9.80;99.90
20208;DHT22;10263;48.716;8.760;2022-12-18T04:21:42;-9.90;99.90
20208;DHT22;10263;48.716;8.760;2022-12-18T04:24:10;-9.90;99.90
20208;DHT22;10263;48.716;8.760;2022-12-18T04:26:41;-9.90;99.90
20208;DHT22;10263;48.716;8.760;2022-12-18T04:29:24;-9.90;99.90
20208;DHT22;10263;48.716;8.760;2022-12-18T04:31:51;-9.30;99.90
20208;DHT22;10263;48.716;8.760;2022-12-18T04:39:17;-9.50;99.90
20208;DHT22;10263;48.716;8.760;2022-12-18T04:46:41;-9.80;99.90
20208;DHT22;10263;48.716;8.760;2022-12-18T04:54:03;-9.80;99.90
20208;DHT22;10263;48.716;8.760;2022-12-18T05:03:53;-9.30;99.90
20208;DHT22;10263;48.716;8.760;2022-12-18T05:06:20;-9.40;99.90
20208;DHT22;10263;48.716;8.760;2022-12-18T05:11:15;-9.10;99.90
20208;DHT22;10263;48.716;8.760;2022-12-18T05:13:43;-9.10;99.90
20208;DHT22;10263;48.716;8.760;2022-12-18T05:18:37;-8.90;99.90
20208;DHT22;10263;48.716;8.760;2022-12-18T05:21:06;-8.90;99.90
20208;DHT22;10263;48.716;8.760;2022-12-18T05:23:36;-9.00;99.90
20208;DHT22;10263;48.716;8.760;2022-12-18T05:26:04;-8.80;99.90
20208;DHT22;10263;48.716;8.760;2022-12-18T05:28:33;-8.80;99.90
20208;DHT22;10263;48.716;8.760;2022-12-18T05:31:02;-8.70;99.90
20208;DHT22;10263;48.716;8.760;2022-12-18T05:33:31;-9.60;99.90
20208;DHT22;10263;48.716;8.760;2022-12-18T05:35:59;-8.70;99.90
20208;DHT22;10263;48.716;8.760;2022-12-18T05:38:29;-8.60;99.90
20208;DHT22;10263;48.716;8.760;2022-12-18T05:43:24;-8.70;99.90
20208;DHT22;10263;48.716;8.760;2022-12-18T05:45:52;-6.80;99.90
20208;DHT22;10263;48.716;8.760;2022-12-18T05:48:19;-8.50;99.90
20208;DHT22;10263;48.716;8.760;2022-12-18T05:50:47;-8.40;99.90
20208;DHT22;10263;48.716;8.760;2022-12-18T05:53:16;-8.30;99.90
20208;DHT22;10263;48.716;8.760;2022-12-18T05:55:45;-8.20;99.90
20208;DHT22;10263;48.716;8.760;2022-12-18T05:58:12;-8.20;99.90
20208;DHT22;10263;48.716;8.760;2022-12-18T06:00:42;-8.20;99.90
20208;DHT22;10263;48.716;8.760;2022-12-18T06:03:11;-8.10;99.90
20208;DHT22;10263;48.716;8.760;2022-12-18T06:05:40;-8.10;99.90
20208;DHT22;10263;48.716;8.760;2022-12-18T06:08:08;-8.00;99.90
20208;DHT22;10263;48.716;8.760;2022-12-18T06:13:04;-7.90;99.90
20208;DHT22;10263;48.716;8.760;2022-12-18T06:27:47;-7.60;99.90
20208;DHT22;10263;48.716;8.760;2022-12-18T06:30:15;-8.00;99.90
20208;DHT22;10263;48.716;8.760;2022-12-18T06:32:42;-7.60;99.90
20208;DHT22;10263;48.716;8.760;2022-12-18T06:40:05;-7.50;99.90
20208;DHT22;10263;48.716;8.760;2022-12-18T06:47:28;-7.40;99.90
20208;DHT22;10263;48.716;8.760;2022-12-18T06:54:49;-6.30;99.90
20208;DHT22;10263;48.716;8.760;2022-12-18T07:02:11;-7.20;99.90
20208;DHT22;10263;48.716;8.760;2022-12-18T07:04:39;-7.20;99.90
20208;DHT22;10263;48.716;8.760;2022-12-18T07:19:22;-7.10;99.90
20208;DHT22;10263;48.716;8.760;2022-12-18T07:21:51;-7.10;99.90
20208;DHT22;10263;48.716;8.760;2022-12-18T07:26:46;-7.00;99.90
20208;DHT22;10263;48.716;8.760;2022-12-18T07:31:40;-6.90;99.90
20208;DHT22;10263;48.716;8.760;2022-12-18T07:34:10;-6.80;99.90
20208;DHT22;10263;48.716;8.760;2022-12-18T07:36:36;-7.10;99.90
20208;DHT22;10263;48.716;8.760;2022-12-18T07:39:04;-6.80;99.90
20208;DHT22;10263;48.716;8.760;2022-12-18T07:44:09;-6.80;99.90
20208;DHT22;10263;48.716;8.760;2022-12-18T07:49:03;-6.60;99.90
20208;DHT22;10263;48.716;8.760;2022-12-18T07:51:29;-6.70;99.90
20208;DHT22;10263;48.716;8.760;2022-12-18T07:56:25;-6.70;99.90
20208;DHT22;10263;48.716;8.760;2022-12-18T08:13:36;-6.30;99.90
20208;DHT22;10263;48.716;8.760;2022-12-18T08:16:04;-6.30;99.90
20208;DHT22;10263;48.716;8.760;2022-12-18T08:21:07;-6.20;99.90
20208;DHT22;10263;48.716;8.760;2022-12-18T08:26:01;-5.60;99.90
20208;DHT22;10263;48.716;8.760;2022-12-18T08:30:57;-6.00;99.90
20208;DHT22;10263;48.716;8.760;2022-12-18T08:38:18;-6.00;99.90
20208;DHT22;10263;48.716;8.760;2022-12-18T08:43:12;-5.80;99.90
20208;DHT22;10263;48.716;8.760;2022-12-18T08:45:58;-5.70;99.90
20208;DHT22;10263;48.716;8.760;2022-12-18T08:50:55;-5.70;99.90
20208;DHT22;10263;48.716;8.760;2022-12-18T08:55:50;-5.50;99.90
20208;DHT22;10263;48.716;8.760;2022-12-18T08:58:19;-5.50;99.90
20208;DHT22;10263;48.716;8.760;2022-12-18T09:03:26;-5.30;99.90
20208;DHT22;10263;48.716;8.760;2022-12-18T09:10:49;-5.20;99.90
20208;DHT22;10263;48.716;8.760;2022-12-18T09:13:17;-5.10;99.90
20208;DHT22;10263;48.716;8.760;2022-12-18T09:15:45;-5.00;99.90
20208;DHT22;10263;48.716;8.760;2022-12-18T09:18:13;-4.90;99.90
20208;DHT22;10263;48.716;8.760;2022-12-18T09:20:41;-4.80;99.90
20208;DHT22;10263;48.716;8.760;2022-12-18T09:23:08;-4.70;99.90
20208;DHT22;10263;48.716;8.760;2022-12-18T09:25:36;-4.60;99.90
20208;DHT22;10263;48.716;8.760;2022-12-18T09:28:05;-4.60;99.90
20208;DHT22;10263;48.716;8.760;2022-12-18T09:30:32;-4.70;99.90
20208;DHT22;10263;48.716;8.760;2022-12-18T09:37:55;-4.60;99.90
20208;DHT22;10263;48.716;8.760;2022-12-18T09:40:25;-4.60;99.90
20208;DHT22;10263;48.716;8.760;2022-12-18T09:42:55;-4.40;99.90
20208;DHT22;10263;48.716;8.760;2022-12-18T09:45:23;-3.90;99.90
20208;DHT22;10263;48.716;8.760;2022-12-18T09:47:52;-4.10;99.90
20208;DHT22;10263;48.716;8.760;2022-12-18T09:50:24;-4.00;99.90
20208;DHT22;10263;48.716;8.760;2022-12-18T09:52:59;-3.90;99.90
20208;DHT22;10263;48.716;8.760;2022-12-18T09:55:30;-3.80;99.90
20208;DHT22;10263;48.716;8.760;2022-12-18T09:58:02;-3.90;99.90
20208;DHT22;10263;48.716;8.760;2022-12-18T10:00:31;-3.90;99.90
20208;DHT22;10263;48.716;8.760;2022-12-18T10:03:01;-3.70;99.90
20208;DHT22;10263;48.716;8.760;2022-12-18T10:05:34;-3.80;99.90
20208;DHT22;10263;48.716;8.760;2022-12-18T10:08:09;-3.80;99.90
20208;DHT22;10263;48.716;8.760;2022-12-18T10:10:42;-3.90;99.90
20208;DHT22;10263;48.716;8.760;2022-12-18T10:13:16;-4.00;99.90
20208;DHT22;10263;48.716;8.760;2022-12-18T10:18:48;-3.90;99.90
20208;DHT22;10263;48.716;8.760;2022-12-18T10:21:23;-3.80;99.90
20208;DHT22;10263;48.716;8.760;2022-12-18T10:24:00;-3.40;99.90
20208;DHT22;10263;48.716;8.760;2022-12-18T10:26:31;-3.90;99.90
20208;DHT22;10263;48.716;8.760;2022-12-18T10:28:58;-3.70;99.90
20208;DHT22;10263;48.716;8.760;2022-12-18T10:33:54;-3.80;99.90
20208;DHT22;10263;48.716;8.760;2022-12-18T10:36:23;-3.90;99.90
20208;DHT22;10263;48.716;8.760;2022-12-18T10:38:50;-3.80;99.90
20208;DHT22;10263;48.716;8.760;2022-12-18T10:41:26;-3.70;99.90
20208;DHT22;10263;48.716;8.760;2022-12-18T10:44:16;-3.60;99.90
20208;DHT22;10263;48.716;8.760;2022-12-18T10:46:44;-3.60;99.90
20208;DHT22;10263;48.716;8.760;2022-12-18T10:49:20;-3.30;99.90
20208;DHT22;10263;48.716;8.760;2022-12-18T10:54:16;-3.40;99.90
20208;DHT22;10263;48.716;8.760;2022-12-18T10:56:45;-3.40;99.90
20208;DHT22;10263;48.716;8.760;2022-12-18T10:59:16;-3.50;99.90
20208;DHT22;10263;48.716;8.760;2022-12-18T11:01:49;-3.40;99.90
20208;DHT22;10263;48.716;8.760;2022-12-18T11:04:19;-3.30;99.90
20208;DHT22;10263;48.716;8.760;2022-12-18T11:06:54;-3.10;99.90
20208;DHT22;10263;48.716;8.760;2022-12-18T11:09:23;-3.00;99.90
20208;DHT22;10263;48.716;8.760;2022-12-18T11:11:53;-2.70;99.90
20208;DHT22;10263;48.716;8.760;2022-12-18T11:14:23;-2.70;99.90
20208;DHT22;10263;48.716;8.760;2022-12-18T11:16:52;-2.70;99.90
20208;DHT22;10263;48.716;8.760;2022-12-18T11:19:27;-2.70;99.90
20208;DHT22;10263;48.716;8.760;2022-12-18T11:21:55;-2.50;99.90
20208;DHT22;10263;48.716;8.760;2022-12-18T11:24:27;-2.40;99.90
20208;DHT22;10263;48.716;8.760;2022-12-18T11:26:56;-2.30;99.90
20208;DHT22;10263;48.716;8.760;2022-12-18T11:29:30;-2.20;99.90
20208;DHT22;10263;48.716;8.760;2022-12-18T11:32:24;-2.10;99.90
20208;DHT22;10263;48.716;8.760;2022-12-18T11:34:59;-1.90;99.90
20208;DHT22;10263;48.716;8.760;2022-12-18T11:37:27;-1.60;99.90
20208;DHT22;10263;48.716;8.760;2022-12-18T11:39:57;-1.60;99.90
20208;DHT22;10263;48.716;8.760;2022-12-18T11:42:34;-0.10;99.90
20208;DHT22;10263;48.716;8.760;2022-12-18T11:45:27;-1.00;99.90
20208;DHT22;10263;48.716;8.760;2022-12-18T11:47:58;-0.90;99.90
20208;DHT22;10263;48.716;8.760;2022-12-18T11:50:30;-0.60;99.90
20208;DHT22;10263;48.716;8.760;2022-12-18T11:55:33;-0.50;99.90
20208;DHT22;10263;48.716;8.760;2022-12-18T11:58:10;-0.60;99.90
20208;DHT22;10263;48.716;8.760;2022-12-18T12:00:44;-0.80;99.90
20208;DHT22;10263;48.716;8.760;2022-12-18T12:03:22;-0.90;99.90
20208;DHT22;10263;48.716;8.760;2022-12-18T12:06:05;-1.00;99.90
20208;DHT22;10263;48.716;8.760;2022-12-18T12:08:44;-0.70;99.90
20208;DHT22;10263;48.716;8.760;2022-12-18T12:11:19;-0.60;99.90
20208;DHT22;10263;48.716;8.760;2022-12-18T12:14:10;-0.50;99.90
20208;DHT22;10263;48.716;8.760;2022-12-18T12:16:44;-0.40;99.90
20208;DHT22;10263;48.716;8.760;2022-12-18T12:19:27;-0.40;99.90
20208;DHT22;10263;48.716;8.760;2022-12-18T12:22:08;-0.50;99.90
20208;DHT22;10263;48.716;8.760;2022-12-18T12:24:48;-0.60;99.90
20208;DHT22;10263;48.716;8.760;2022-12-18T12:27:19;-0.40;99.90
20208;DHT22;10263;48.716;8.760;2022-12-18T12:30:00;-0.20;99.90
20208;DHT22;10263;48.716;8.760;2022-12-18T12:32:43;-0.30;99.90
20208;DHT22;10263;48.716;8.760;2022-12-18T12:35:22;-0.20;99.90
20208;DHT22;10263;48.716;8.760;2022-12-18T12:37:58;-0.10;99.90
20208;DHT22;10263;48.716;8.760;2022-12-18T12:40:31;-0.10;99.90
20208;DHT22;10263;48.716;8.760;2022-12-18T12:43:02;-0.30;99.90
20208;DHT22;10263;48.716;8.760;2022-12-18T12:45:45;-0.20;99.90
20208;DHT22;10263;48.716;8.760;2022-12-18T12:48:28;-0.10;99.90
20208;DHT22;10263;48.716;8.760;2022-12-18T12:50:59;0.00;99.90
20208;DHT22;10263;48.716;8.760;2022-12-18T12:53:32;0.10;99.90
20208;DHT22;10263;48.716;8.760;2022-12-18T12:56:01;0.10;99.90
20208;DHT22;10263;48.716;8.760;2022-12-18T12:58:36;0.20;99.90
20208;DHT22;10263;48.716;8.760;2022-12-18T13:01:14;0.10;99.90
20208;DHT22;10263;48.716;8.760;2022-12-18T13:03:54;0.30;99.90
20208;DHT22;10263;48.716;8.760;2022-12-18T13:06:32;0.40;99.90
20208;DHT22;10263;48.716;8.760;2022-12-18T13:09:00;0.50;99.90
20208;DHT22;10263;48.716;8.760;2022-12-18T13:11:39;0.40;99.90
20208;DHT22;10263;48.716;8.760;2022-12-18T13:14:28;0.40;99.90
20208;DHT22;10263;48.716;8.760;2022-12-18T13:20:18;0.30;99.90
20208;DHT22;10263;48.716;8.760;2022-12-18T13:22:46;0.40;99.90
20208;DHT22;10263;48.716;8.760;2022-12-18T13:25:32;0.20;99.90
20208;DHT22;10263;48.716;8.760;2022-12-18T13:28:06;0.10;99.90
20208;DHT22;10263;48.716;8.760;2022-12-18T13:30:46;0.10;99.90
20208;DHT22;10263;48.716;8.760;2022-12-18T13:33:42;0.00;99.90
20208;DHT22;10263;48.716;8.760;2022-12-18T13:36:26;0.10;99.90
20208;DHT22;10263;48.716;8.760;2022-12-18T13:39:11;0.00;99.90
20208;DHT22;10263;48.716;8.760;2022-12-18T13:41:49;0.10;99.90
20208;DHT22;10263;48.716;8.760;2022-12-18T13:44:25;-0.10;99.90
20208;DHT22;10263;48.716;8.760;2022-12-18T13:46:54;-0.10;99.90
20208;DHT22;10263;48.716;8.760;2022-12-18T13:49:24;-0.20;99.90
20208;DHT22;10263;48.716;8.760;2022-12-18T13:51:54;-0.30;99.90
20208;DHT22;10263;48.716;8.760;2022-12-18T13:54:25;-0.30;99.90
20208;DHT22;10263;48.716;8.760;2022-12-18T13:59:22;-0.30;99.90
20208;DHT22;10263;48.716;8.760;2022-12-18T14:01:53;-0.30;99.90
20208;DHT22;10263;48.716;8.760;2022-12-18T14:04:23;-0.30;99.90
20208;DHT22;10263;48.716;8.760;2022-12-18T14:06:56;-0.30;99.90
20208;DHT22;10263;48.716;8.760;2022-12-18T14:09:27;-0.30;99.90
20208;DHT22;10263;48.716;8.760;2022-12-18T14:11:56;-0.30;99.90
20208;DHT22;10263;48.716;8.760;2022-12-18T14:14:41;-0.30;99.90
20208;DHT22;10263;48.716;8.760;2022-12-18T14:17:10;-0.40;99.90
20208;DHT22;10263;48.716;8.760;2022-12-18T14:19:40;-0.30;99.90
20208;DHT22;10263;48.716;8.760;2022-12-18T14:22:15;-0.30;99.90
20208;DHT22;10263;48.716;8.760;2022-12-18T14:27:20;-0.30;99.90
20208;DHT22;10263;48.716;8.760;2022-12-18T14:32:16;0.80;99.90
20208;DHT22;10263;48.716;8.760;2022-12-18T14:34:44;-0.50;99.90
20208;DHT22;10263;48.716;8.760;2022-12-18T14:37:14;-0.50;99.90
20208;DHT22;10263;48.716;8.760;2022-12-18T14:39:52;-0.50;99.90
20208;DHT22;10263;48.716;8.760;2022-12-18T14:47:14;-0.40;99.90
20208;DHT22;10263;48.716;8.760;2022-12-18T14:49:42;-0.60;99.90
20208;DHT22;10263;48.716;8.760;2022-12-18T14:52:20;-0.50;99.90
20208;DHT22;10263;48.716;8.760;2022-12-18T14:57:22;-0.60;99.90
20208;DHT22;10263;48.716;8.760;2022-12-18T14:59:49;-1.00;99.90
20208;DHT22;10263;48.716;8.760;2022-12-18T15:02:21;-1.00;99.90
20208;DHT22;10263;48.716;8.760;2022-12-18T15:05:00;-1.10;99.90
20208;DHT22;10263;48.716;8.760;2022-12-18T15:07:40;-1.10;99.90
20208;DHT22;10263;48.716;8.760;2022-12-18T15:10:12;-1.30;99.90
20208;DHT22;10263;48.716;8.760;2022-12-18T15:12:41;-1.30;99.90
20208;DHT22;10263;48.716;8.760;2022-12-18T15:15:49;-1.30;99.90
20208;DHT22;10263;48.716;8.760;2022-12-18T15:18:18;-1.40;99.90
20208;DHT22;10263;48.716;8.760;2022-12-18T15:20:48;-1.50;99.90
20208;DHT22;10263;48.716;8.760;2022-12-18T15:23:20;-1.50;99.90
20208;DHT22;10263;48.716;8.760;2022-12-18T15:25:48;-1.60;99.90
20208;DHT22;10263;48.716;8.760;2022-12-18T15:28:24;-1.60;99.90
20208;DHT22;10263;48.716;8.760;2022-12-18T15:31:00;-1.50;99.90
20208;DHT22;10263;48.716;8.760;2022-12-18T15:33:31;-1.80;99.90
20208;DHT22;10263;48.716;8.760;2022-12-18T15:35:59;-1.80;99.90
20208;DHT22;10263;48.716;8.760;2022-12-18T15:38:28;-1.70;99.90
20208;DHT22;10263;48.716;8.760;2022-12-18T15:43:23;-2.00;99.90
20208;DHT22;10263;48.716;8.760;2022-12-18T15:46:03;-2.00;99.90
20208;DHT22;10263;48.716;8.760;2022-12-18T15:48:33;-2.10;99.90
20208;DHT22;10263;48.716;8.760;2022-12-18T15:51:00;-2.20;99.90
20208;DHT22;10263;48.716;8.760;2022-12-18T15:53:30;-0.40;99.90
20208;DHT22;10263;48.716;8.760;2022-12-18T16:01:10;-2.20;99.90
20208;DHT22;10263;48.716;8.760;2022-12-18T16:03:37;-1.80;99.90
20208;DHT22;10263;48.716;8.760;2022-12-18T16:08:33;-2.40;99.90
20208;DHT22;10263;48.716;8.760;2022-12-18T16:11:00;-2.50;99.90
20208;DHT22;10263;48.716;8.760;2022-12-18T16:13:27;-2.40;99.90
20208;DHT22;10263;48.716;8.760;2022-12-18T16:23:16;-2.90;99.90
20208;DHT22;10263;48.716;8.760;2022-12-18T16:25:44;-2.60;99.90
20208;DHT22;10263;48.716;8.760;2022-12-18T16:38:02;-2.80;99.90
20208;DHT22;10263;48.716;8.760;2022-12-18T16:40:32;-2.70;99.90
20208;DHT22;10263;48.716;8.760;2022-12-18T16:43:20;-2.80;99.90
20208;DHT22;10263;48.716;8.760;2022-12-18T17:00:32;-2.70;99.90
20208;DHT22;10263;48.716;8.760;2022-12-18T17:12:49;-3.00;99.90
20208;DHT22;10263;48.716;8.760;2022-12-18T17:17:45;-2.60;99.90
20208;DHT22;10263;48.716;8.760;2022-12-18T17:22:39;-2.60;99.90
20208;DHT22;10263;48.716;8.760;2022-12-18T17:27:34;-2.40;99.90
20208;DHT22;10263;48.716;8.760;2022-12-18T17:32:28;-2.80;99.90
20208;DHT22;10263;48.716;8.760;2022-12-18T17:34:57;-2.70;99.90
20208;DHT22;10263;48.716;8.760;2022-12-18T17:39:52;-2.60;99.90
20208;DHT22;10263;48.716;8.760;2022-12-18T17:44:45;-2.40;99.90
20208;DHT22;10263;48.716;8.760;2022-12-18T17:52:08;-2.50;99.90
20208;DHT22;10263;48.716;8.760;2022-12-18T18:06:54;-2.70;99.90
20208;DHT22;10263;48.716;8.760;2022-12-18T18:09:22;-2.50;99.90
20208;DHT22;10263;48.716;8.760;2022-12-18T18:21:55;-2.50;99.90
20208;DHT22;10263;48.716;8.760;2022-12-18T18:24:24;-2.30;99.90
20208;DHT22;10263;48.716;8.760;2022-12-18T18:29:23;-2.30;99.90
20208;DHT22;10263;48.716;8.760;2022-12-18T18:31:50;-2.20;99.90
20208;DHT22;10263;48.716;8.760;2022-12-18T18:34:19;-2.30;99.90
20208;DHT22;10263;48.716;8.760;2022-12-18T18:36:46;-2.40;99.90
20208;DHT22;10263;48.716;8.760;2022-12-18T18:41:41;-2.20;99.90
20208;DHT22;10263;48.716;8.760;2022-12-18T18:49:03;-2.40;99.90
20208;DHT22;10263;48.716;8.760;2022-12-18T18:53:58;-2.80;99.90
20208;DHT22;10263;48.716;8.760;2022-12-18T18:58:55;-2.40;99.90
20208;DHT22;10263;48.716;8.760;2022-12-18T19:01:22;-2.40;99.90
20208;DHT22;10263;48.716;8.760;2022-12-18T19:03:50;0.70;99.90
20208;DHT22;10263;48.716;8.760;2022-12-18T19:06:19;-2.40;99.90
20208;DHT22;10263;48.716;8.760;2022-12-18T19:08:47;-2.20;99.90
20208;DHT22;10263;48.716;8.760;2022-12-18T19:14:04;-2.40;99.90
20208;DHT22;10263;48.716;8.760;2022-12-18T19:16:32;-2.30;99.90
20208;DHT22;10263;48.716;8.760;2022-12-18T19:31:17;-2.30;99.90
20208;DHT22;10263;48.716;8.760;2022-12-18T19:33:45;-2.50;99.90
20208;DHT22;10263;48.716;8.760;2022-12-18T19:36:15;-2.00;99.90
20208;DHT22;10263;48.716;8.760;2022-12-18T19:46:07;-2.40;99.90
20208;DHT22;10263;48.716;8.760;2022-12-18T19:48:35;-2.30;99.90
20208;DHT22;10263;48.716;8.760;2022-12-18T19:51:04;-2.30;99.90
20208;DHT22;10263;48.716;8.760;2022-12-18T19:56:04;-2.30;99.90
20208;DHT22;10263;48.716;8.760;2022-12-18T20:03:25;-2.30;99.90
20208;DHT22;10263;48.716;8.760;2022-12-18T20:05:53;-2.30;99.90
20208;DHT22;10263;48.716;8.760;2022-12-18T20:13:15;-2.30;99.90
20208;DHT22;10263;48.716;8.760;2022-12-18T20:18:09;-2.20;99.90
20208;DHT22;10263;48.716;8.760;2022-12-18T20:20:36;-2.40;99.90
20208;DHT22;10263;48.716;8.760;2022-12-18T20:23:04;-2.20;99.90
20208;DHT22;10263;48.716;8.760;2022-12-18T20:40:16;-2.20;99.90
20208;DHT22;10263;48.716;8.760;2022-12-18T20:45:09;-2.40;99.90
20208;DHT22;10263;48.716;8.760;2022-12-18T20:50:04;-2.20;99.90
20208;DHT22;10263;48.716;8.760;2022-12-18T20:57:28;-2.20;99.90
20208;DHT22;10263;48.716;8.760;2022-12-18T21:12:13;-2.20;99.90
20208;DHT22;10263;48.716;8.760;2022-12-18T21:15:04;-2.10;99.90
20208;DHT22;10263;48.716;8.760;2022-12-18T21:17:31;-2.10;99.90
20208;DHT22;10263;48.716;8.760;2022-12-18T21:19:58;-2.00;99.90
20208;DHT22;10263;48.716;8.760;2022-12-18T21:22:25;-2.10;99.90
20208;DHT22;10263;48.716;8.760;2022-12-18T21:24:52;-2.10;99.90
20208;DHT22;10263;48.716;8.760;2022-12-18T21:27:19;-2.00;99.90
20208;DHT22;10263;48.716;8.760;2022-12-18T21:32:15;-2.00;99.90
20208;DHT22;10263;48.716;8.760;2022-12-18T21:37:08;-2.10;99.90
20208;DHT22;10263;48.716;8.760;2022-12-18T21:42:03;-1.90;99.90
20208;DHT22;10263;48.716;8.760;2022-12-18T21:44:47;-2.10;99.90
20208;DHT22;10263;48.716;8.760;2022-12-18T21:47:16;-1.90;99.90
20208;DHT22;10263;48.716;8.760;2022-12-18T21:57:05;-2.00;99.90
20208;DHT22;10263;48.716;8.760;2022-12-18T21:59:35;-1.90;99.90
20208;DHT22;10263;48.716;8.760;2022-12-18T22:02:06;-2.00;99.90
20208;DHT22;10263;48.716;8.760;2022-12-18T22:04:34;-1.80;99.90
20208;DHT22;10263;48.716;8.760;2022-12-18T22:09:29;-1.80;99.90
20208;DHT22;10263;48.716;8.760;2022-12-18T22:11:56;-1.60;99.90
20208;DHT22;10263;48.716;8.760;2022-12-18T22:14:23;-1.60;99.90
20208;DHT22;10263;48.716;8.760;2022-12-18T22:16:51;-1.80;99.90
20208;DHT22;10263;48.716;8.760;2022-12-18T22:19:18;-1.60;99.90
20208;DHT22;10263;48.716;8.760;2022-12-18T22:21:48;-1.70;99.90
20208;DHT22;10263;48.716;8.760;2022-12-18T22:24:16;-0.20;99.90
20208;DHT22;10263;48.716;8.760;2022-12-18T22:26:44;-1.60;99.90
20208;DHT22;10263;48.716;8.760;2022-12-18T22:29:14;-1.70;99.90
20208;DHT22;10263;48.716;8.760;2022-12-18T22:36:54;-1.70;99.90
20208;DHT22;10263;48.716;8.760;2022-12-18T22:39:23;-1.70;99.90
20208;DHT22;10263;48.716;8.760;2022-12-18T22:41:50;-1.50;99.90
20208;DHT22;10263;48.716;8.760;2022-12-18T22:46:46;-1.60;99.90
20208;DHT22;10263;48.716;8.760;2022-12-18T22:49:14;-1.60;99.90
20208;DHT22;10263;48.716;8.760;2022-12-18T22:51:42;-1.50;99.90
20208;DHT22;10263;48.716;8.760;2022-12-18T22:54:10;-1.50;99.90
20208;DHT22;10263;48.716;8.760;2022-12-18T23:01:34;-1.60;99.90
20208;DHT22;10263;48.716;8.760;2022-12-18T23:08:56;-1.40;99.90
20208;DHT22;10263;48.716;8.760;2022-12-18T23:11:25;-1.50;99.90
20208;DHT22;10263;48.716;8.760;2022-12-18T23:16:19;-1.40;99.90
20208;DHT22;10263;48.716;8.760;2022-12-18T23:18:48;-1.40;99.90
20208;DHT22;10263;48.716;8.760;2022-12-18T23:21:19;-1.40;99.90
20208;DHT22;10263;48.716;8.760;2022-12-18T23:26:15;-1.40;99.90